createdAt,value
2018-03-11T00:00:02.584Z,5.77
2018-03-11T00:02:29.274Z,6.20
2018-03-11T00:04:55.994Z,5.83
2018-03-11T00:07:22.684Z,5.53
2018-03-11T00:09:49.380Z,5.97
2018-03-11T00:12:17.602Z,5.70
2018-03-11T00:14:44.371Z,6.50
2018-03-11T00:17:11.076Z,6.00
2018-03-11T00:19:37.748Z,6.17
2018-03-11T00:22:04.584Z,5.73
2018-03-11T00:24:31.312Z,6.27
2018-03-11T00:26:58.040Z,6.27
2018-03-11T00:29:24.741Z,5.23
2018-03-11T00:31:51.400Z,5.20
2018-03-11T00:34:18.055Z,5.60
2018-03-11T00:36:45.501Z,5.40
2018-03-11T00:39:12.303Z,6.50
2018-03-11T00:41:38.999Z,5.73
2018-03-11T00:44:06.325Z,6.27
2018-03-11T00:46:33.865Z,5.60
2018-03-11T00:49:00.575Z,6.00
2018-03-11T00:51:27.655Z,5.20
2018-03-11T00:53:54.341Z,6.20
2018-03-11T00:56:21.016Z,6.30
2018-03-11T00:58:47.883Z,5.83
2018-03-11T01:01:14.899Z,6.37
2018-03-11T01:03:41.555Z,6.67
2018-03-11T01:06:08.256Z,5.87
2018-03-11T01:08:34.983Z,5.63
2018-03-11T01:11:02.021Z,6.13
2018-03-11T01:13:28.835Z,5.20
2018-03-11T01:15:55.540Z,6.50
2018-03-11T01:18:22.536Z,5.23
2018-03-11T01:20:49.214Z,5.67
2018-03-11T01:23:16.088Z,6.00
2018-03-11T01:25:43.117Z,6.43
2018-03-11T01:28:09.803Z,6.50
2018-03-11T01:30:37.219Z,6.80
2018-03-11T01:33:04.067Z,5.93
2018-03-11T01:35:30.756Z,6.00
2018-03-11T01:37:58.159Z,6.33
2018-03-11T01:40:24.852Z,6.17
2018-03-11T01:42:51.543Z,6.43
2018-03-11T01:45:18.384Z,6.60
2018-03-11T01:47:45.040Z,5.57
2018-03-11T01:50:11.876Z,6.40
2018-03-11T01:52:51.004Z,7.13
2018-03-11T01:55:17.854Z,7.17
2018-03-11T01:57:44.700Z,6.47
2018-03-11T02:00:11.655Z,7.10
2018-03-11T02:02:39.204Z,5.67
2018-03-11T02:05:06.169Z,5.73
2018-03-11T02:07:32.916Z,6.67
2018-03-11T02:09:59.765Z,6.83
2018-03-11T02:12:26.611Z,7.30
2018-03-11T02:14:53.336Z,6.67
2018-03-11T02:17:21.028Z,6.77
2018-03-11T02:19:47.770Z,7.10
2018-03-11T02:22:14.509Z,7.70
2018-03-11T02:24:41.468Z,7.37
2018-03-11T02:27:08.166Z,7.47
2018-03-11T02:29:34.826Z,8.27
2018-03-11T02:32:02.299Z,8.67
2018-03-11T02:34:29.013Z,8.30
2018-03-11T02:36:55.672Z,8.33
2018-03-11T02:39:22.405Z,7.87
2018-03-11T02:41:49.082Z,6.80
2018-03-11T02:44:16.564Z,7.57
2018-03-11T02:46:43.258Z,6.60
2018-03-11T02:49:11.490Z,7.33
2018-03-11T02:51:38.443Z,7.53
2018-03-11T02:54:05.164Z,7.10
2018-03-11T02:56:32.623Z,7.27
2018-03-11T02:59:00.092Z,7.07
2018-03-11T03:01:34.638Z,6.70
2018-03-11T03:04:01.386Z,6.60
2018-03-11T03:06:28.133Z,7.77
2018-03-11T03:08:54.875Z,6.80
2018-03-11T03:11:21.508Z,7.30
2018-03-11T03:13:48.266Z,8.00
2018-03-11T03:16:15.010Z,8.50
2018-03-11T03:18:41.746Z,7.33
2018-03-11T03:21:09.322Z,7.70
2018-03-11T03:23:36.070Z,6.30
2018-03-11T03:26:02.815Z,7.37
2018-03-11T03:28:29.667Z,8.27
2018-03-11T03:30:56.415Z,7.57
2018-03-11T03:33:23.160Z,8.23
2018-03-11T03:35:50.008Z,7.20
2018-03-11T03:38:16.857Z,7.70
2018-03-11T03:40:43.599Z,7.00
2018-03-11T03:43:10.347Z,8.03
2018-03-11T03:45:37.301Z,8.40
2018-03-11T03:48:04.251Z,8.60
2018-03-11T03:50:30.971Z,9.47
2018-03-11T03:52:58.453Z,10.13
2018-03-11T03:55:25.137Z,9.43
2018-03-11T03:57:52.055Z,10.30
2018-03-11T04:00:20.130Z,9.33
2018-03-11T04:02:46.784Z,10.30
2018-03-11T04:05:13.444Z,12.13
2018-03-11T04:07:40.140Z,11.40
2018-03-11T04:10:06.788Z,12.97
2018-03-11T04:12:33.601Z,12.07
2018-03-11T04:15:00.294Z,12.17
2018-03-11T04:17:26.940Z,11.77
2018-03-11T04:19:53.639Z,12.47
2018-03-11T04:22:20.290Z,13.00
2018-03-11T04:24:46.985Z,13.43
2018-03-11T04:27:13.675Z,12.50
2018-03-11T04:29:41.107Z,13.17
2018-03-11T04:32:07.840Z,13.70
2018-03-11T04:34:34.493Z,15.00
2018-03-11T04:37:01.311Z,14.17
2018-03-11T04:39:28.032Z,14.27
2018-03-11T04:41:55.430Z,14.37
2018-03-11T04:44:22.092Z,14.77
2018-03-11T04:46:48.762Z,14.73
2018-03-11T04:49:15.452Z,13.70
2018-03-11T04:51:42.163Z,14.40
2018-03-11T04:54:08.849Z,13.77
2018-03-11T04:56:35.542Z,13.90
2018-03-11T04:59:02.289Z,14.33
2018-03-11T05:01:28.953Z,14.37
2018-03-11T05:03:56.428Z,12.43
2018-03-11T05:06:23.832Z,11.77
2018-03-11T05:08:50.638Z,12.73
2018-03-11T05:11:18.037Z,13.53
2018-03-11T05:13:44.734Z,12.97
2018-03-11T05:16:12.287Z,12.97
2018-03-11T05:18:38.996Z,11.87
2018-03-11T05:21:05.714Z,12.67
2018-03-11T05:23:32.560Z,12.77
2018-03-11T05:25:59.332Z,12.20
2018-03-11T05:28:26.170Z,12.70
2018-03-11T05:30:53.016Z,13.07
2018-03-11T05:33:19.657Z,13.03
2018-03-11T05:35:46.293Z,12.87
2018-03-11T05:38:13.741Z,13.40
2018-03-11T05:40:40.457Z,13.70
2018-03-11T05:43:07.118Z,13.47
2018-03-11T05:45:34.910Z,14.67
2018-03-11T05:48:01.586Z,14.70
2018-03-11T05:50:28.228Z,15.60
2018-03-11T05:52:54.962Z,14.87
2018-03-11T05:55:21.655Z,15.57
2018-03-11T05:57:48.379Z,16.43
2018-03-11T06:00:15.104Z,15.37
2018-03-11T06:02:41.820Z,14.50
2018-03-11T06:05:09.222Z,13.70
2018-03-11T06:07:36.022Z,13.90
2018-03-11T06:10:03.455Z,15.20
2018-03-11T06:12:30.111Z,13.70
2018-03-11T06:14:56.813Z,13.87
2018-03-11T06:17:23.627Z,12.73
2018-03-11T06:19:51.022Z,13.80
2018-03-11T06:22:17.692Z,13.23
2018-03-11T06:24:44.532Z,14.73
2018-03-11T06:27:11.184Z,14.60
2018-03-11T06:29:37.847Z,14.80
2018-03-11T06:32:04.606Z,14.13
2018-03-11T06:34:32.013Z,15.13
2018-03-11T06:36:58.722Z,14.67
2018-03-11T06:39:26.092Z,14.00
2018-03-11T06:41:53.479Z,14.67
2018-03-11T06:44:20.301Z,14.27
2018-03-11T06:46:46.967Z,14.10
2018-03-11T06:49:13.662Z,14.83
2018-03-11T06:51:40.312Z,13.23
2018-03-11T06:54:07.720Z,13.77
2018-03-11T06:56:34.452Z,13.50
2018-03-11T06:59:01.144Z,13.13
2018-03-11T07:01:27.842Z,12.77
2018-03-11T07:03:54.698Z,13.30
2018-03-11T07:06:21.355Z,12.77
2018-03-11T07:08:48.016Z,14.50
2018-03-11T07:11:14.855Z,13.40
2018-03-11T07:13:41.492Z,13.60
2018-03-11T07:16:08.173Z,12.90
2018-03-11T07:18:34.951Z,12.90
2018-03-11T07:21:02.385Z,14.17
2018-03-11T07:23:30.185Z,14.20
2018-03-11T07:25:56.995Z,14.63
2018-03-11T07:28:23.696Z,14.07
2018-03-11T07:30:50.414Z,11.33
2018-03-11T07:33:17.177Z,10.13
2018-03-11T07:35:43.853Z,11.63
2018-03-11T07:38:10.579Z,12.43
2018-03-11T07:40:37.293Z,11.63
2018-03-11T07:43:04.720Z,12.80
2018-03-11T07:45:31.421Z,13.10
2018-03-11T07:47:58.148Z,11.67
2018-03-11T07:50:25.556Z,13.10
2018-03-11T07:52:52.242Z,14.23
2018-03-11T07:55:19.663Z,13.70
2018-03-11T07:57:46.478Z,13.03
2018-03-11T08:00:13.479Z,11.67
2018-03-11T08:02:40.112Z,12.33
2018-03-11T08:05:06.849Z,12.27
2018-03-11T08:07:33.559Z,11.53
2018-03-11T08:10:00.246Z,12.10
2018-03-11T08:12:26.956Z,11.07
2018-03-11T08:14:53.620Z,11.20
2018-03-11T08:17:21.225Z,11.73
2018-03-11T08:19:48.980Z,11.30
2018-03-11T08:22:15.679Z,11.93
2018-03-11T08:24:42.372Z,11.80
2018-03-11T08:27:09.600Z,12.87
2018-03-11T08:29:36.385Z,13.17
2018-03-11T08:32:03.582Z,12.57
2018-03-11T08:34:30.283Z,12.27
2018-03-11T08:36:56.960Z,11.70
2018-03-11T08:39:24.647Z,12.43
2018-03-11T08:41:51.324Z,11.97
2018-03-11T08:44:17.999Z,10.80
2018-03-11T08:46:44.819Z,12.90
2018-03-11T08:49:11.510Z,12.17
2018-03-11T08:51:38.209Z,12.63
2018-03-11T08:54:04.958Z,12.37
2018-03-11T08:56:31.639Z,13.67
2018-03-11T08:58:59.036Z,13.03
2018-03-11T09:01:25.789Z,14.40
2018-03-11T09:03:52.454Z,14.53
2018-03-11T09:06:19.410Z,13.97
2018-03-11T09:08:46.432Z,14.13
2018-03-11T09:11:13.110Z,12.93
2018-03-11T09:13:40.057Z,13.67
2018-03-11T09:16:07.809Z,12.50
2018-03-11T09:18:34.544Z,12.47
2018-03-11T09:21:01.566Z,15.43
2018-03-11T09:23:28.624Z,15.87
2018-03-11T09:25:56.027Z,14.83
2018-03-11T09:28:22.716Z,15.53
2018-03-11T09:30:49.508Z,14.87
2018-03-11T09:33:16.469Z,14.50
2018-03-11T09:35:44.702Z,14.77
2018-03-11T09:38:12.545Z,14.00
2018-03-11T09:40:41.269Z,14.87
2018-03-11T09:43:08.265Z,14.83
2018-03-11T09:45:34.940Z,15.33
2018-03-11T09:48:01.615Z,16.17
2018-03-11T09:50:28.326Z,14.47
2018-03-11T09:52:55.057Z,15.60
2018-03-11T09:55:21.751Z,14.47
2018-03-11T09:57:49.162Z,15.17
2018-03-11T10:00:15.902Z,12.83
2018-03-11T10:02:42.568Z,14.47
2018-03-11T10:05:09.579Z,12.30
2018-03-11T10:07:36.256Z,13.30
2018-03-11T10:10:03.148Z,12.47
2018-03-11T10:12:29.879Z,12.87
2018-03-11T10:14:57.338Z,12.93
2018-03-11T10:17:24.846Z,9.93
2018-03-11T10:19:51.657Z,10.73
2018-03-11T10:22:18.435Z,10.17
2018-03-11T10:24:45.188Z,11.27
2018-03-11T10:27:11.916Z,11.50
2018-03-11T10:29:38.813Z,10.00
2018-03-11T10:32:05.582Z,10.10
2018-03-11T10:34:33.106Z,8.33
2018-03-11T10:37:00.139Z,8.53
2018-03-11T10:39:27.101Z,8.43
2018-03-11T10:41:53.953Z,7.47
2018-03-11T10:44:20.849Z,8.10
2018-03-11T10:46:48.329Z,7.70
2018-03-11T10:49:15.593Z,7.40
2018-03-11T10:51:42.474Z,7.97
2018-03-11T10:54:09.428Z,8.13
2018-03-11T10:56:37.495Z,8.20
2018-03-11T10:59:04.243Z,7.67
2018-03-11T11:01:37.204Z,7.07
2018-03-11T11:04:04.022Z,7.93
2018-03-11T11:06:30.865Z,7.53
2018-03-11T11:08:58.486Z,6.97
2018-03-11T11:11:25.445Z,5.80
2018-03-11T11:13:52.407Z,6.70
2018-03-11T11:16:19.757Z,5.90
2018-03-11T11:18:47.019Z,5.80
2018-03-11T11:21:14.025Z,5.90
2018-03-11T11:23:40.835Z,6.07
2018-03-11T11:26:07.866Z,6.73
2018-03-11T11:28:34.839Z,5.70
2018-03-11T11:31:02.688Z,6.00
2018-03-11T11:33:29.641Z,5.73
2018-03-11T11:35:56.442Z,6.40
2018-03-11T11:38:23.252Z,6.60
2018-03-11T11:40:50.000Z,6.37
2018-03-11T11:43:16.755Z,6.00
2018-03-11T11:45:44.039Z,5.73
2018-03-11T11:48:11.041Z,5.60
2018-03-11T11:50:37.844Z,4.87
2018-03-11T11:53:04.713Z,5.40
2018-03-11T11:55:31.537Z,5.40
2018-03-11T11:57:59.121Z,5.03
2018-03-11T12:00:26.099Z,5.10
2018-03-11T12:02:52.915Z,5.77
2018-03-11T12:05:19.802Z,5.93
2018-03-11T12:07:47.680Z,5.57
2018-03-11T12:10:14.526Z,5.13
2018-03-11T12:12:41.480Z,4.97
2018-03-11T12:15:08.506Z,5.17
2018-03-11T12:17:35.736Z,5.07
2018-03-11T12:20:02.587Z,4.47
2018-03-11T12:22:29.665Z,4.87
2018-03-11T12:24:56.627Z,4.97
2018-03-11T12:27:23.586Z,4.70
2018-03-11T12:29:51.052Z,4.27
2018-03-11T12:32:18.000Z,4.63
2018-03-11T12:34:44.948Z,4.37
2018-03-11T12:37:12.312Z,4.00
2018-03-11T12:39:39.607Z,4.20
2018-03-11T12:42:06.958Z,4.37
2018-03-11T12:44:34.708Z,6.57
2018-03-11T12:47:01.523Z,4.57
2018-03-11T12:49:28.291Z,4.50
2018-03-11T12:51:56.783Z,4.27
2018-03-11T12:54:23.685Z,4.40
2018-03-11T12:56:50.688Z,4.90
2018-03-11T12:59:18.562Z,4.50
2018-03-11T13:01:45.810Z,28.90
2018-03-11T13:04:17.807Z,10.70
2018-03-11T13:06:55.745Z,53.23
2018-03-11T13:09:23.552Z,6.07
2018-03-11T13:11:50.506Z,4.40
2018-03-11T13:14:17.450Z,5.03
2018-03-11T13:16:44.404Z,8.90
2018-03-11T13:19:11.254Z,4.30
2018-03-11T13:21:37.998Z,5.17
2018-03-11T13:24:04.898Z,4.73
2018-03-11T13:26:32.613Z,4.60
2018-03-11T13:28:59.369Z,4.47
2018-03-11T13:31:26.518Z,4.93
2018-03-11T13:34:05.444Z,4.17
2018-03-11T13:36:33.311Z,4.33
2018-03-11T13:39:12.342Z,4.00
2018-03-11T13:41:39.600Z,4.37
2018-03-11T13:44:06.347Z,4.47
2018-03-11T13:46:55.305Z,4.20
2018-03-11T13:49:23.271Z,4.07
2018-03-11T13:52:02.607Z,6.67
2018-03-11T13:54:29.577Z,3.77
2018-03-11T13:57:08.794Z,4.63
2018-03-11T13:59:35.981Z,11.00
2018-03-11T14:02:03.850Z,4.57
2018-03-11T14:04:31.503Z,4.03
2018-03-11T14:06:58.200Z,4.47
2018-03-11T14:09:24.980Z,4.17
2018-03-11T14:11:51.826Z,4.23
2018-03-11T14:14:18.775Z,4.20
2018-03-11T14:16:46.750Z,4.20
2018-03-11T14:19:13.499Z,4.13
2018-03-11T14:21:40.221Z,4.00
2018-03-11T14:24:07.375Z,4.13
2018-03-11T14:26:34.148Z,4.20
2018-03-11T14:29:01.095Z,4.33
2018-03-11T14:31:28.042Z,4.37
2018-03-11T14:33:55.005Z,3.83
2018-03-11T14:36:22.054Z,4.70
2018-03-11T14:38:48.811Z,4.63
2018-03-11T14:41:16.259Z,4.47
2018-03-11T14:43:43.010Z,4.37
2018-03-11T14:46:09.846Z,4.40
2018-03-11T14:48:36.704Z,4.43
2018-03-11T14:51:03.549Z,4.63
2018-03-11T14:53:30.346Z,4.47
2018-03-11T14:55:57.251Z,3.93
2018-03-11T14:58:24.919Z,4.63
2018-03-11T15:00:51.872Z,4.50
2018-03-11T15:03:18.920Z,4.93
2018-03-11T15:05:46.794Z,5.37
2018-03-11T15:08:13.642Z,4.83
2018-03-11T15:10:41.205Z,4.77
2018-03-11T15:13:08.155Z,4.30
2018-03-11T15:15:40.254Z,5.07
2018-03-11T15:18:14.007Z,4.33
2018-03-11T15:20:47.438Z,5.43
2018-03-11T15:23:18.855Z,4.77
2018-03-11T15:26:02.484Z,4.70
2018-03-11T15:28:30.079Z,4.60
2018-03-11T15:30:57.652Z,5.00
2018-03-11T15:33:24.740Z,4.17
2018-03-11T15:35:51.682Z,4.53
2018-03-11T15:38:18.513Z,4.63
2018-03-11T15:40:45.454Z,4.63
2018-03-11T15:43:12.613Z,4.63
2018-03-11T15:45:39.772Z,5.17
2018-03-11T15:48:07.787Z,5.10
2018-03-11T15:50:34.679Z,5.10
2018-03-11T15:53:01.494Z,4.80
2018-03-11T15:55:30.499Z,5.33
2018-03-11T15:58:11.235Z,5.30
2018-03-11T16:00:40.912Z,5.37
2018-03-11T16:03:07.861Z,5.20
2018-03-11T16:05:34.819Z,5.70
2018-03-11T16:08:03.416Z,5.30
2018-03-11T16:10:31.919Z,5.57
2018-03-11T16:12:58.735Z,5.30
2018-03-11T16:15:25.567Z,5.13
2018-03-11T16:17:53.355Z,6.53
2018-03-11T16:20:20.235Z,5.23
2018-03-11T16:22:47.528Z,5.70
2018-03-11T16:25:14.251Z,5.50
2018-03-11T16:27:41.082Z,5.40
2018-03-11T16:30:07.932Z,5.73
2018-03-11T16:32:34.709Z,6.10
2018-03-11T16:35:01.505Z,6.10
2018-03-11T16:37:28.750Z,6.73
2018-03-11T16:39:57.039Z,6.20
2018-03-11T16:42:24.591Z,5.57
2018-03-11T16:44:51.347Z,5.87
2018-03-11T16:47:18.201Z,6.07
2018-03-11T16:49:45.149Z,6.10
2018-03-11T16:52:11.931Z,6.27
2018-03-11T16:54:38.742Z,6.33
2018-03-11T16:57:05.804Z,6.80
2018-03-11T16:59:33.569Z,6.33
2018-03-11T17:02:00.851Z,6.73
2018-03-11T17:04:28.496Z,6.27
2018-03-11T17:06:55.446Z,6.13
2018-03-11T17:09:22.397Z,6.63
2018-03-11T17:11:49.348Z,5.87
2018-03-11T17:14:16.191Z,6.10
2018-03-11T17:16:43.043Z,6.47
2018-03-11T17:19:09.995Z,5.63
2018-03-11T17:21:36.838Z,6.07
2018-03-11T17:24:03.796Z,6.37
2018-03-11T17:26:31.315Z,6.73
2018-03-11T17:28:59.029Z,6.40
2018-03-11T17:31:25.983Z,7.87
2018-03-11T17:33:52.721Z,8.73
2018-03-11T17:36:19.681Z,7.57
2018-03-11T17:38:46.629Z,6.47
2018-03-11T17:41:13.584Z,7.43
2018-03-11T17:43:41.312Z,7.00
2018-03-11T17:46:09.621Z,12.07
2018-03-11T17:48:36.581Z,8.73
2018-03-11T17:51:03.532Z,8.10
2018-03-11T17:53:31.403Z,7.93
2018-03-11T17:55:58.762Z,7.40
2018-03-11T17:58:25.616Z,8.23
2018-03-11T18:00:52.459Z,7.37
2018-03-11T18:03:19.825Z,7.83
2018-03-11T18:05:47.079Z,6.97
2018-03-11T18:08:14.032Z,6.47
2018-03-11T18:10:40.900Z,6.97
2018-03-11T18:13:08.653Z,8.30
2018-03-11T18:15:37.246Z,6.53
2018-03-11T18:18:04.112Z,6.43
2018-03-11T18:20:31.826Z,7.43
2018-03-11T18:22:58.640Z,7.40
2018-03-11T18:25:26.168Z,7.60
2018-03-11T18:27:54.037Z,7.10
2018-03-11T18:30:20.981Z,7.70
2018-03-11T18:32:47.764Z,7.50
2018-03-11T18:35:14.701Z,7.50
2018-03-11T18:37:41.489Z,7.13
2018-03-11T18:40:09.935Z,7.37
2018-03-11T18:42:37.075Z,7.40
2018-03-11T18:45:03.958Z,7.07
2018-03-11T18:47:31.591Z,6.87
2018-03-11T18:49:58.748Z,7.47
2018-03-11T18:52:26.590Z,6.70
2018-03-11T18:54:53.479Z,7.33
2018-03-11T18:57:20.627Z,6.87
2018-03-11T18:59:47.575Z,7.20
2018-03-11T19:02:14.518Z,6.83
2018-03-11T19:04:41.481Z,7.37
2018-03-11T19:07:08.255Z,7.00
2018-03-11T19:09:35.194Z,7.47
2018-03-11T19:12:02.017Z,7.50
2018-03-11T19:14:28.782Z,7.93
2018-03-11T19:16:55.444Z,7.47
2018-03-11T19:19:22.464Z,6.90
2018-03-11T19:21:49.201Z,7.33
2018-03-11T19:24:15.905Z,6.77
2018-03-11T19:26:42.807Z,7.27
2018-03-11T19:29:09.551Z,7.40
2018-03-11T19:31:36.301Z,6.87
2018-03-11T19:34:03.144Z,6.80
2018-03-11T19:36:29.893Z,6.67
2018-03-11T19:38:56.639Z,7.53
2018-03-11T19:41:23.415Z,6.67
2018-03-11T19:43:50.091Z,6.93
2018-03-11T19:46:18.622Z,7.70
2018-03-11T19:48:45.712Z,7.47
2018-03-11T19:51:12.582Z,6.80
2018-03-11T19:53:40.072Z,6.83
2018-03-11T19:56:06.752Z,6.40
2018-03-11T19:58:33.559Z,7.17
2018-03-11T20:01:01.142Z,7.17
2018-03-11T20:03:27.994Z,7.20
2018-03-11T20:05:54.744Z,6.53
2018-03-11T20:08:21.872Z,6.87
2018-03-11T20:10:49.561Z,7.17
2018-03-11T20:13:17.028Z,6.30
2018-03-11T20:15:43.923Z,6.50
2018-03-11T20:18:10.580Z,7.20
2018-03-11T20:20:37.871Z,6.40
2018-03-11T20:23:04.569Z,6.70
2018-03-11T20:25:31.490Z,7.10
2018-03-11T20:27:58.294Z,7.50
2018-03-11T20:30:25.988Z,8.10
2018-03-11T20:32:52.888Z,6.53
2018-03-11T20:35:19.865Z,6.90
2018-03-11T20:37:47.767Z,8.57
2018-03-11T20:40:14.708Z,7.57
2018-03-11T20:42:41.868Z,6.53
2018-03-11T20:45:09.463Z,7.60
2018-03-11T20:47:36.285Z,7.03
2018-03-11T20:50:03.539Z,6.90
2018-03-11T20:52:30.351Z,6.53
2018-03-11T20:54:58.039Z,6.67
2018-03-11T20:57:25.826Z,6.97
2018-03-11T20:59:52.885Z,5.80
2018-03-11T21:02:20.649Z,6.07
2018-03-11T21:04:47.392Z,5.83
2018-03-11T21:07:14.343Z,6.37
2018-03-11T21:09:41.195Z,6.43
2018-03-11T21:12:08.209Z,7.23
2018-03-11T21:14:35.527Z,6.90
2018-03-11T21:17:02.395Z,6.87
2018-03-11T21:19:29.371Z,7.47
2018-03-11T21:21:56.882Z,6.77
2018-03-11T21:24:23.751Z,6.80
2018-03-11T21:26:50.669Z,7.57
2018-03-11T21:29:17.524Z,6.67
2018-03-11T21:31:45.389Z,7.47
2018-03-11T21:34:14.143Z,7.13
2018-03-11T21:36:40.853Z,7.60
2018-03-11T21:39:07.620Z,6.30
2018-03-11T21:41:34.285Z,6.63
2018-03-11T21:44:01.835Z,6.87
2018-03-11T21:46:28.601Z,7.27
2018-03-11T21:48:55.377Z,7.70
2018-03-11T21:51:22.100Z,7.07
2018-03-11T21:53:49.688Z,6.67
2018-03-11T21:56:16.844Z,6.73
2018-03-11T21:58:43.579Z,6.60
2018-03-11T22:01:13.072Z,7.37
2018-03-11T22:03:40.563Z,7.70
2018-03-11T22:06:07.512Z,7.13
2018-03-11T22:08:34.361Z,6.43
2018-03-11T22:11:01.106Z,6.37
2018-03-11T22:13:27.865Z,6.90
2018-03-11T22:15:54.576Z,7.40
2018-03-11T22:18:22.046Z,6.80
2018-03-11T22:20:48.787Z,6.90
2018-03-11T22:23:16.684Z,6.90
2018-03-11T22:25:43.427Z,6.73
2018-03-11T22:28:10.618Z,7.53
2018-03-11T22:30:38.085Z,6.50
2018-03-11T22:33:04.804Z,7.70
2018-03-11T22:35:32.565Z,7.67
2018-03-11T22:38:00.924Z,7.97
2018-03-11T22:40:27.782Z,8.03
2018-03-11T22:42:55.257Z,6.77
2018-03-11T22:45:21.996Z,8.07
2018-03-11T22:47:49.263Z,8.10
2018-03-11T22:50:16.510Z,6.10
2018-03-11T22:52:43.733Z,7.70
2018-03-11T22:55:10.833Z,7.27
2018-03-11T22:57:37.578Z,7.07
2018-03-11T23:00:04.628Z,7.43
2018-03-11T23:02:32.093Z,7.40
2018-03-11T23:04:58.919Z,7.23
2018-03-11T23:07:25.657Z,7.90
2018-03-11T23:09:53.139Z,7.67
2018-03-11T23:12:20.549Z,7.93
2018-03-11T23:14:47.463Z,7.50
2018-03-11T23:17:14.213Z,7.17
2018-03-11T23:19:40.886Z,7.07
2018-03-11T23:22:07.600Z,7.77
2018-03-11T23:24:34.550Z,8.80
2018-03-11T23:27:01.198Z,9.17
2018-03-11T23:29:28.043Z,9.70
2018-03-11T23:31:55.298Z,9.20
2018-03-11T23:34:22.044Z,10.10
2018-03-11T23:36:48.898Z,8.03
2018-03-11T23:39:15.620Z,9.00
2018-03-11T23:41:43.508Z,9.13
2018-03-11T23:44:10.362Z,10.23
2018-03-11T23:46:37.213Z,9.80
2018-03-11T23:49:03.955Z,10.83
2018-03-11T23:51:31.727Z,11.30
2018-03-11T23:53:58.782Z,11.50
2018-03-11T23:56:25.528Z,12.30
2018-03-11T23:58:52.554Z,11.53
